Time;durP1;ratioP1;P1;durP2;ratioP2;P2;SDS_P1;SDS_P2;PMS_P1;PMS_P2;Temp;Humidity;BMP_temperature;BMP_pressure;BME280_temperature;BME280_humidity;BME280_pressure;Samples;Min_cycle;Max_cycle;Signal;HPM_P1;HPM_P2
2022/05/04 00:01:36;;;;;;;6.73;2.63;;;11.60;99.90;;;;;;5070039;28;20867;-90
2022/05/04 00:04:03;;;;;;;28.17;4.47;;;11.60;99.90;;;;;;5071049;28;20458;-91
2022/05/04 00:06:31;;;;;;;5.23;2.60;;;11.50;99.90;;;;;;5070730;28;21047;-91
2022/05/04 00:08:58;;;;;;;4.67;2.20;;;11.40;99.90;;;;;;5068791;28;21276;-91
2022/05/04 00:11:25;;;;;;;4.80;2.10;;;11.30;99.90;;;;;;5068664;28;20949;-91
2022/05/04 00:13:52;;;;;;;3.37;2.00;;;11.30;99.90;;;;;;5065014;28;20464;-91
2022/05/04 00:16:19;;;;;;;3.03;2.70;;;11.20;99.90;;;;;;5067297;28;20452;-91
2022/05/04 00:18:46;;;;;;;6.30;2.67;;;11.10;99.90;;;;;;5067862;28;20460;-91
2022/05/04 00:21:13;;;;;;;3.97;1.97;;;11.10;99.90;;;;;;5064730;28;20553;-90
2022/05/04 00:23:41;;;;;;;13.43;2.20;;;11.10;99.90;;;;;;5077656;28;20457;-90
2022/05/04 00:26:08;;;;;;;6.57;2.37;;;11.00;99.90;;;;;;5065815;28;21343;-91
2022/05/04 00:28:35;;;;;;;2.40;1.73;;;10.90;99.90;;;;;;5070135;28;20449;-90
2022/05/04 00:31:02;;;;;;;2.70;1.80;;;10.80;99.90;;;;;;5084087;28;20451;-91
2022/05/04 00:33:29;;;;;;;2.20;1.53;;;10.70;99.90;;;;;;5069118;28;20453;-91
2022/05/04 00:35:56;;;;;;;4.60;1.23;;;10.60;99.90;;;;;;5065621;28;20472;-91
2022/05/04 00:38:23;;;;;;;1.67;1.50;;;10.50;99.90;;;;;;5068125;28;21142;-90
2022/05/04 00:40:51;;;;;;;1.70;1.60;;;10.40;99.90;;;;;;5067336;28;20540;-91
2022/05/04 00:43:22;;;;;;;1.87;1.20;;;10.40;99.90;;;;;;5067814;28;20484;-90
2022/05/04 00:45:50;;;;;;;2.50;1.10;;;10.40;99.90;;;;;;5064131;28;20910;-91
2022/05/04 00:48:17;;;;;;;1.50;1.33;;;10.40;99.90;;;;;;5094076;28;20456;-91
2022/05/04 00:50:45;;;;;;;1.83;1.57;;;10.50;99.90;;;;;;5092745;28;20513;-91
2022/05/04 00:53:12;;;;;;;1.50;1.00;;;10.40;99.90;;;;;;5082565;28;20524;-91
2022/05/04 00:55:40;;;;;;;1.20;1.00;;;10.50;99.90;;;;;;5076122;28;20456;-91
2022/05/04 01:00:54;;;;;;;0.60;0.60;;;10.20;99.90;;;;;;5065245;28;20472;-91
2022/05/04 01:03:21;;;;;;;1.30;1.00;;;10.10;99.90;;;;;;5072815;28;20536;-91
2022/05/04 01:05:48;;;;;;;0.90;0.50;;;10.00;99.90;;;;;;5079248;28;20512;-91
2022/05/04 01:08:16;;;;;;;1.97;1.77;;;10.00;99.90;;;;;;5073703;28;20945;-91
2022/05/04 01:10:43;;;;;;;0.80;0.60;;;10.20;99.90;;;;;;5066892;28;20825;-91
2022/05/04 01:13:11;;;;;;;1.47;0.83;;;10.30;99.90;;;;;;5064780;28;20858;-91
2022/05/04 01:15:38;;;;;;;0.60;0.60;;;10.30;99.90;;;;;;5065579;28;20439;-90
2022/05/04 01:18:05;;;;;;;0.80;0.60;;;10.20;99.90;;;;;;5064866;28;20482;-90
2022/05/04 01:20:32;;;;;;;0.60;0.60;;;10.10;99.90;;;;;;5068892;28;20546;-91
2022/05/04 01:23:01;;;;;;;0.40;0.27;;;10.00;99.90;;;;;;5066253;28;20510;-91
2022/05/04 01:25:28;;;;;;;0.40;0.30;;;10.10;99.90;;;;;;5064890;28;20459;-91
2022/05/04 01:27:55;;;;;;;0.60;0.60;;;10.00;99.90;;;;;;5064328;28;20465;-91
2022/05/04 01:30:22;;;;;;;0.40;0.30;;;9.80;99.90;;;;;;5064513;28;20545;-92
2022/05/04 01:32:49;;;;;;;1.33;0.40;;;9.80;99.90;;;;;;5068124;28;20467;-91
2022/05/04 01:35:17;;;;;;;0.40;0.20;;;9.90;99.90;;;;;;5066180;28;20463;-91
2022/05/04 01:37:44;;;;;;;0.40;0.30;;;9.90;99.90;;;;;;5067277;28;20459;-92
2022/05/04 01:40:12;;;;;;;0.40;0.30;;;9.90;99.90;;;;;;5069279;28;20524;-91
2022/05/04 01:42:39;;;;;;;1.03;0.63;;;9.90;99.90;;;;;;5069794;28;20536;-91
2022/05/04 01:45:08;;;;;;;0.30;0.20;;;9.70;99.90;;;;;;5064198;28;20863;-92
2022/05/04 01:47:35;;;;;;;0.40;0.30;;;9.60;99.90;;;;;;5065210;28;20486;-92
2022/05/04 01:50:02;;;;;;;0.30;0.20;;;9.50;99.90;;;;;;5068842;28;20471;-91
2022/05/04 01:52:30;;;;;;;0.30;0.20;;;9.40;99.90;;;;;;5069128;28;20456;-90
2022/05/04 01:54:57;;;;;;;0.30;0.10;;;9.30;99.90;;;;;;5064317;28;20509;-91
2022/05/04 01:57:25;;;;;;;0.30;0.20;;;9.30;99.90;;;;;;5068545;28;20834;-92
2022/05/04 01:59:52;;;;;;;0.30;0.10;;;9.30;99.90;;;;;;5068956;28;20540;-91
2022/05/04 02:02:20;;;;;;;0.30;0.10;;;9.40;99.90;;;;;;5067990;28;20483;-91
2022/05/04 02:04:47;;;;;;;0.40;0.20;;;9.50;99.90;;;;;;5066460;28;20456;-92
2022/05/04 02:07:14;;;;;;;0.40;0.20;;;9.50;99.90;;;;;;5063172;28;20476;-90
2022/05/04 02:09:41;;;;;;;0.30;0.20;;;9.60;99.90;;;;;;5063527;28;20471;-91
2022/05/04 02:12:09;;;;;;;0.30;0.20;;;9.60;99.90;;;;;;5061813;28;20467;-91
2022/05/04 02:14:37;;;;;;;0.30;0.10;;;9.50;99.90;;;;;;5065763;28;20516;-91
2022/05/04 02:17:05;;;;;;;0.50;0.40;;;9.60;99.90;;;;;;5066510;28;20468;-91
2022/05/04 02:19:32;;;;;;;0.30;0.10;;;9.60;99.90;;;;;;5065441;28;20488;-91
2022/05/04 02:21:59;;;;;;;0.30;0.13;;;9.70;99.90;;;;;;5063746;28;20491;-92
2022/05/04 02:24:26;;;;;;;0.30;0.20;;;9.70;99.90;;;;;;5063776;28;20905;-92
2022/05/04 02:26:53;;;;;;;0.30;0.10;;;9.70;99.90;;;;;;5066499;28;20962;-91
2022/05/04 02:29:20;;;;;;;0.30;0.20;;;9.70;99.90;;;;;;5065980;28;20482;-91
2022/05/04 02:31:49;;;;;;;0.30;0.20;;;9.60;99.90;;;;;;5066930;28;20525;-91
2022/05/04 02:34:16;;;;;;;0.30;0.10;;;9.60;99.90;;;;;;5063719;28;20463;-92
2022/05/04 02:39:27;;;;;;;0.30;0.20;;;9.40;99.90;;;;;;5064672;28;20489;-91
2022/05/04 02:41:55;;;;;;;0.30;0.20;;;9.40;99.90;;;;;;5077904;28;20471;-92
2022/05/04 02:44:21;;;;;;;0.30;0.10;;;9.50;99.90;;;;;;5067660;28;20497;-92
2022/05/04 02:46:50;;;;;;;0.30;0.20;;;9.30;99.90;;;;;;5069351;28;20524;-92
2022/05/04 02:49:17;;;;;;;0.30;0.20;;;9.40;99.90;;;;;;5064500;28;20463;-91
2022/05/04 02:51:44;;;;;;;0.30;0.20;;;9.50;99.90;;;;;;5067846;28;20517;-91
2022/05/04 02:54:11;;;;;;;0.30;0.20;;;9.50;99.90;;;;;;5063734;28;20468;-91
2022/05/04 02:56:39;;;;;;;0.30;0.10;;;9.60;99.90;;;;;;5063662;28;20498;-92
2022/05/04 02:59:06;;;;;;;0.30;0.10;;;9.60;99.90;;;;;;5062771;28;20486;-91
2022/05/04 03:04:18;;;;;;;0.30;0.20;;;9.80;99.90;;;;;;5061889;28;20446;-92
2022/05/04 03:06:45;;;;;;;0.30;0.20;;;9.90;99.90;;;;;;5065908;28;20517;-91
2022/05/04 03:09:13;;;;;;;0.30;0.20;;;9.90;99.90;;;;;;5065618;28;20470;-91
2022/05/04 03:11:59;;;;;;;0.30;0.20;;;9.90;99.90;;;;;;5066048;28;20787;-91
2022/05/04 03:14:27;;;;;;;0.30;0.20;;;10.00;99.90;;;;;;5073654;28;20581;-91
2022/05/04 03:16:55;;;;;;;0.40;0.30;;;10.00;99.90;;;;;;5065097;28;20501;-91
2022/05/04 03:19:24;;;;;;;0.30;0.10;;;10.00;99.90;;;;;;5065426;28;20471;-91
2022/05/04 03:21:52;;;;;;;0.30;0.20;;;10.00;99.90;;;;;;5070126;28;21094;-91
2022/05/04 03:24:19;;;;;;;0.30;0.13;;;10.00;99.90;;;;;;5062444;28;20489;-91
2022/05/04 03:26:47;;;;;;;0.30;0.10;;;10.00;99.90;;;;;;5067048;28;20509;-92
2022/05/04 03:29:13;;;;;;;0.30;0.20;;;10.00;99.90;;;;;;5070113;28;20614;-91
2022/05/04 03:31:41;;;;;;;0.30;0.17;;;9.90;99.90;;;;;;5074620;28;20489;-91
2022/05/04 03:34:08;;;;;;;0.30;0.20;;;9.80;99.90;;;;;;5066587;28;20464;-91
2022/05/04 03:36:37;;;;;;;0.30;0.20;;;9.70;99.90;;;;;;5071034;28;20517;-91
2022/05/04 03:39:04;;;;;;;0.30;0.10;;;9.80;99.90;;;;;;5069966;28;20653;-91
2022/05/04 03:41:31;;;;;;;0.30;0.20;;;9.80;99.90;;;;;;5070008;28;20560;-90
2022/05/04 03:43:58;;;;;;;0.30;0.20;;;9.80;99.90;;;;;;5070570;28;20494;-91
2022/05/04 03:46:27;;;;;;;0.30;0.20;;;9.80;99.90;;;;;;5068101;28;20874;-91
2022/05/04 03:48:56;;;;;;;0.30;0.10;;;9.80;99.90;;;;;;5068442;28;21146;-91
2022/05/04 03:51:24;;;;;;;0.30;0.10;;;9.80;99.90;;;;;;5067161;28;20516;-91
2022/05/04 03:53:54;;;;;;;0.40;0.30;;;9.80;99.90;;;;;;5069134;28;20533;-91
2022/05/04 03:56:21;;;;;;;0.30;0.20;;;9.70;99.90;;;;;;5068277;28;20552;-91
2022/05/04 03:58:49;;;;;;;0.30;0.10;;;9.70;99.90;;;;;;5070828;28;20463;-91
2022/05/04 04:01:17;;;;;;;0.30;0.10;;;9.70;99.90;;;;;;5068854;28;20459;-92
2022/05/04 04:03:44;;;;;;;0.30;0.17;;;9.60;99.90;;;;;;5066620;28;20572;-91
2022/05/04 04:06:11;;;;;;;0.30;0.20;;;9.60;99.90;;;;;;5082565;28;20486;-92
2022/05/04 04:08:38;;;;;;;0.30;0.10;;;9.50;99.90;;;;;;5092408;28;20448;-91
2022/05/04 04:11:07;;;;;;;0.30;0.20;;;9.50;99.90;;;;;;5085254;28;20959;-92
2022/05/04 04:13:34;;;;;;;0.30;0.20;;;9.40;99.90;;;;;;5084699;28;21066;-92
2022/05/04 04:16:01;;;;;;;0.30;0.20;;;9.40;99.90;;;;;;5070809;28;20980;-91
2022/05/04 04:18:28;;;;;;;0.30;0.17;;;9.50;99.90;;;;;;5071216;28;20537;-91
2022/05/04 04:23:42;;;;;;;0.30;0.10;;;9.70;99.90;;;;;;5067167;28;20503;-91
2022/05/04 04:26:11;;;;;;;0.30;0.10;;;9.80;99.90;;;;;;5070427;28;20467;-91
2022/05/04 04:28:39;;;;;;;0.30;0.20;;;9.90;99.90;;;;;;5072204;28;20468;-91
2022/05/04 04:31:08;;;;;;;0.30;0.10;;;10.00;99.90;;;;;;5071357;28;20800;-91
2022/05/04 04:33:36;;;;;;;0.30;0.10;;;10.00;99.90;;;;;;5071664;28;20451;-92
2022/05/04 04:36:03;;;;;;;0.30;0.17;;;10.00;99.90;;;;;;5064374;28;20506;-92
2022/05/04 04:38:30;;;;;;;0.30;0.10;;;10.00;99.90;;;;;;5067851;28;20855;-91
2022/05/04 04:40:58;;;;;;;0.30;0.20;;;10.00;99.90;;;;;;5071981;28;20557;-91
2022/05/04 04:43:27;;;;;;;0.30;0.17;;;10.20;99.90;;;;;;5069718;28;20536;-91
2022/05/04 04:45:54;;;;;;;0.30;0.20;;;10.30;99.90;;;;;;5067906;28;20829;-91
2022/05/04 04:48:22;;;;;;;0.30;0.20;;;10.30;99.90;;;;;;5065390;28;20553;-91
2022/05/04 04:50:49;;;;;;;0.30;0.20;;;10.30;99.90;;;;;;5068069;28;20851;-91
2022/05/04 04:53:17;;;;;;;0.30;0.13;;;10.30;99.90;;;;;;5063494;28;20460;-91
2022/05/04 04:55:44;;;;;;;0.30;0.20;;;10.30;99.90;;;;;;5067405;28;20459;-91
2022/05/04 04:58:12;;;;;;;0.30;0.20;;;10.40;99.90;;;;;;5063465;28;20544;-91
2022/05/04 05:00:40;;;;;;;0.30;0.20;;;10.40;99.90;;;;;;5064874;28;20467;-91
2022/05/04 05:03:07;;;;;;;0.30;0.20;;;10.40;99.90;;;;;;5062179;28;20487;-91
2022/05/04 05:05:34;;;;;;;0.30;0.10;;;10.60;99.90;;;;;;5070234;28;20520;-91
2022/05/04 05:08:01;;;;;;;0.30;0.17;;;10.70;99.90;;;;;;5069597;28;20472;-92
2022/05/04 05:10:28;;;;;;;0.30;0.20;;;10.70;99.90;;;;;;5071044;28;20475;-91
2022/05/04 05:12:55;;;;;;;0.30;0.20;;;10.70;99.90;;;;;;5073520;28;20459;-91
2022/05/04 05:18:08;;;;;;;0.30;0.20;;;11.00;99.90;;;;;;5070678;28;20506;-91
2022/05/04 05:20:36;;;;;;;0.30;0.20;;;11.10;99.90;;;;;;5064842;28;20876;-91
2022/05/04 05:23:04;;;;;;;0.30;0.20;;;11.20;99.90;;;;;;5065570;28;20835;-91
2022/05/04 05:25:32;;;;;;;0.30;0.20;;;11.40;99.90;;;;;;5073311;28;20464;-91
2022/05/04 05:28:00;;;;;;;0.30;0.20;;;11.60;99.90;;;;;;5068941;28;20536;-91
2022/05/04 05:30:27;;;;;;;0.30;0.20;;;11.70;99.90;;;;;;5069985;28;21043;-90
2022/05/04 05:32:54;;;;;;;0.30;0.10;;;11.90;99.90;;;;;;5070787;28;21074;-91
2022/05/04 05:35:23;;;;;;;0.30;0.20;;;11.80;99.90;;;;;;5068244;28;20949;-90
2022/05/04 05:37:50;;;;;;;0.30;0.20;;;11.90;99.90;;;;;;5067616;28;20530;-91
2022/05/04 05:40:17;;;;;;;0.30;0.20;;;12.10;99.90;;;;;;5068128;28;20460;-91
2022/05/04 05:42:44;;;;;;;0.30;0.20;;;12.20;99.90;;;;;;5067527;28;20513;-91
2022/05/04 05:45:11;;;;;;;0.30;0.20;;;12.30;99.90;;;;;;5065769;28;20465;-91
2022/05/04 05:47:39;;;;;;;0.30;0.20;;;12.50;99.90;;;;;;5064121;28;20473;-91
2022/05/04 05:50:07;;;;;;;0.30;0.20;;;12.70;99.90;;;;;;5067270;28;20504;-91
2022/05/04 05:52:36;;;;;;;0.30;0.20;;;12.90;99.90;;;;;;5066380;28;20470;-91
2022/05/04 05:55:03;;;;;;;0.30;0.20;;;13.00;99.90;;;;;;5063343;28;20980;-91
2022/05/04 05:57:30;;;;;;;0.30;0.20;;;13.20;99.90;;;;;;5068052;28;20516;-91
2022/05/04 05:59:57;;;;;;;0.30;0.20;;;13.30;99.90;;;;;;5065201;28;20458;-91
2022/05/04 06:02:28;;;;;;;0.30;0.20;;;13.40;99.90;;;;;;5066812;28;20470;-92
2022/05/04 06:04:55;;;;;;;0.30;0.20;;;13.50;99.90;;;;;;5066798;28;21031;-91
2022/05/04 06:07:22;;;;;;;0.30;0.20;;;13.60;99.90;;;;;;5066263;28;20604;-91
2022/05/04 06:09:50;;;;;;;0.30;0.20;;;13.40;99.90;;;;;;5061626;28;20516;-91
2022/05/04 06:12:17;;;;;;;0.30;0.17;;;13.40;99.90;;;;;;5065808;28;20465;-91
2022/05/04 06:14:44;;;;;;;0.30;0.20;;;13.70;99.90;;;;;;5067257;28;20542;-91
2022/05/04 06:17:11;;;;;;;0.30;0.20;;;14.00;99.90;;;;;;5065879;28;20467;-91
2022/05/04 06:19:38;;;;;;;0.30;0.20;;;14.20;99.90;;;;;;5064336;28;20491;-91
2022/05/04 06:22:06;;;;;;;0.30;0.20;;;14.60;99.90;;;;;;5060347;28;20503;-91
2022/05/04 06:24:33;;;;;;;0.30;0.20;;;14.80;99.90;;;;;;5067333;28;20488;-91
2022/05/04 06:27:01;;;;;;;0.30;0.20;;;14.80;99.90;;;;;;5067000;28;20462;-90
2022/05/04 06:34:54;;;;;;;0.30;0.20;;;15.60;99.90;;;;;;5064825;28;20495;-91
2022/05/04 06:37:22;;;;;;;0.30;0.20;;;15.60;99.90;;;;;;5065216;28;20470;-91
2022/05/04 06:39:48;;;;;;;0.30;0.20;;;16.10;99.90;;;;;;5071952;28;21946;-90
2022/05/04 06:42:17;;;;;;;0.30;0.20;;;16.40;99.90;;;;;;5062839;28;20474;-91
2022/05/04 06:44:45;;;;;;;0.30;0.20;;;16.50;99.90;;;;;;5076052;28;20526;-92
2022/05/04 06:47:12;;;;;;;0.30;0.20;;;16.40;99.90;;;;;;5066806;28;21159;-91
2022/05/04 06:49:39;;;;;;;0.30;0.20;;;16.40;99.90;;;;;;5065888;28;20533;-91
2022/05/04 06:52:06;;;;;;;0.30;0.20;;;16.30;99.90;;;;;;5058629;28;20838;-92
2022/05/04 06:54:33;;;;;;;0.30;0.20;;;16.00;99.90;;;;;;5066821;28;20810;-90
2022/05/04 06:57:01;;;;;;;0.30;0.20;;;16.20;99.90;;;;;;5062537;28;20552;-91
2022/05/04 06:59:29;;;;;;;0.30;0.20;;;16.00;99.90;;;;;;5065621;28;20466;-92
2022/05/04 07:01:56;;;;;;;0.30;0.20;;;15.60;99.90;;;;;;5065702;28;20462;-92
2022/05/04 07:04:23;;;;;;;0.30;0.20;;;15.40;99.90;;;;;;5063179;28;20493;-92
2022/05/04 07:06:50;;;;;;;0.30;0.20;;;15.70;99.90;;;;;;5073464;28;20464;-92
2022/05/04 07:09:18;;;;;;;0.30;0.20;;;15.60;99.90;;;;;;5076858;28;20485;-92
2022/05/04 07:11:45;;;;;;;0.30;0.20;;;15.40;99.90;;;;;;5085483;28;20898;-91
2022/05/04 07:14:13;;;;;;;0.30;0.20;;;15.40;99.90;;;;;;5074847;28;20455;-92
2022/05/04 07:16:41;;;;;;;0.30;0.20;;;15.40;99.90;;;;;;5067240;28;20453;-91
2022/05/04 07:19:08;;;;;;;0.30;0.20;;;15.30;99.90;;;;;;5079286;28;21000;-91
2022/05/04 07:21:35;;;;;;;0.30;0.20;;;15.40;99.90;;;;;;5073072;28;20456;-91
2022/05/04 07:24:02;;;;;;;0.80;0.80;;;15.30;99.90;;;;;;5090481;28;20471;-92
2022/05/04 07:26:29;;;;;;;0.30;0.20;;;15.10;99.90;;;;;;5091563;28;20442;-91
2022/05/04 07:28:56;;;;;;;0.30;0.20;;;15.10;99.90;;;;;;5086017;28;20489;-92
2022/05/04 07:31:24;;;;;;;0.30;0.20;;;14.90;99.90;;;;;;5085055;28;20527;-92
2022/05/04 07:33:52;;;;;;;0.30;0.20;;;14.90;99.90;;;;;;5091122;28;20462;-92
2022/05/04 07:36:19;;;;;;;0.30;0.20;;;14.80;99.90;;;;;;5071084;28;20472;-92
2022/05/04 07:38:46;;;;;;;0.30;0.20;;;14.80;99.90;;;;;;5081889;28;20473;-88
2022/05/04 07:43:58;;;;;;;0.30;0.20;;;15.00;99.90;;;;;;5070653;28;20787;-90
2022/05/04 07:46:25;;;;;;;0.30;0.20;;;14.90;99.90;;;;;;5071596;28;20582;-89
2022/05/04 07:48:54;;;;;;;0.30;0.20;;;14.70;99.90;;;;;;5072081;28;20473;-91
2022/05/04 07:51:21;;;;;;;0.30;0.20;;;14.70;99.90;;;;;;5067320;28;20461;-90
2022/05/04 07:53:48;;;;;;;0.30;0.20;;;14.60;99.90;;;;;;5068342;28;20449;-90
2022/05/04 07:56:15;;;;;;;0.30;0.20;;;14.50;99.90;;;;;;5069458;28;20459;-91
2022/05/04 07:58:42;;;;;;;0.30;0.20;;;14.50;99.90;;;;;;5069962;28;20546;-91
2022/05/04 08:06:36;;;;;;;0.30;0.20;;;14.70;99.90;;;;;;5059861;28;20463;-91
2022/05/04 08:09:03;;;;;;;0.30;0.20;;;15.10;99.90;;;;;;5068500;28;20545;-91
2022/05/04 08:11:30;;;;;;;0.30;0.20;;;15.10;99.90;;;;;;5066735;28;20470;-91
2022/05/04 08:13:57;;;;;;;0.30;0.20;;;15.30;99.90;;;;;;5069155;28;20518;-90
2022/05/04 08:16:24;;;;;;;0.30;0.20;;;15.50;99.90;;;;;;5067142;28;20471;-91
2022/05/04 08:18:51;;;;;;;0.30;0.20;;;15.60;99.90;;;;;;5069266;28;20459;-91
2022/05/04 08:21:20;;;;;;;0.30;0.20;;;15.70;99.90;;;;;;5077546;28;20479;-90
2022/05/04 08:23:47;;;;;;;0.30;0.20;;;15.70;99.90;;;;;;5074615;28;20945;-90
2022/05/04 08:26:14;;;;;;;0.30;0.20;;;15.40;99.90;;;;;;5066788;28;20454;-90
2022/05/04 08:28:41;;;;;;;0.30;0.20;;;15.70;99.90;;;;;;5067944;28;20515;-91
2022/05/04 08:31:08;;;;;;;0.30;0.20;;;15.90;99.50;;;;;;5067978;28;20455;-91
2022/05/04 08:33:36;;;;;;;0.30;0.20;;;15.90;97.60;;;;;;5068914;28;21118;-91
2022/05/04 08:36:03;;;;;;;0.30;0.20;;;16.10;97.00;;;;;;5066032;28;20492;-90
2022/05/04 08:38:31;;;;;;;0.40;0.30;;;16.20;96.60;;;;;;5064934;28;20874;-90
2022/05/04 08:40:58;;;;;;;0.30;0.20;;;16.40;96.20;;;;;;5068500;28;20473;-90
2022/05/04 08:43:25;;;;;;;0.30;0.20;;;16.60;96.00;;;;;;5080207;28;20519;-90
2022/05/04 08:45:54;;;;;;;0.30;0.20;;;16.70;94.90;;;;;;5067862;28;20491;-91
2022/05/04 08:48:22;;;;;;;0.30;0.20;;;16.80;95.80;;;;;;5072124;28;20490;-91
2022/05/04 08:50:51;;;;;;;0.30;0.20;;;16.60;96.30;;;;;;5066255;28;20555;-90
2022/05/04 08:53:18;;;;;;;0.30;0.20;;;16.40;96.50;;;;;;5065727;28;20537;-90
2022/05/04 08:55:48;;;;;;;0.40;0.20;;;16.50;95.70;;;;;;5086536;28;20446;-91
2022/05/04 08:58:15;;;;;;;0.40;0.20;;;16.50;96.60;;;;;;5073855;28;20598;-91
2022/05/04 09:00:42;;;;;;;0.30;0.20;;;16.60;96.30;;;;;;5066710;28;20467;-91
2022/05/04 09:03:09;;;;;;;0.40;0.20;;;16.90;96.70;;;;;;5081958;28;20471;-90
2022/05/04 09:05:40;;;;;;;0.30;0.20;;;17.20;96.40;;;;;;5064376;28;21161;-91
2022/05/04 09:08:10;;;;;;;0.40;0.20;;;16.90;97.30;;;;;;5065348;28;20549;-90
2022/05/04 09:10:38;;;;;;;0.40;0.20;;;16.80;97.20;;;;;;5086685;28;20449;-92
2022/05/04 09:13:09;;;;;;;0.40;0.20;;;17.10;96.90;;;;;;5074575;28;20468;-92
2022/05/04 09:15:39;;;;;;;0.37;0.20;;;17.20;96.20;;;;;;5080756;28;20447;-91
2022/05/04 09:18:08;;;;;;;0.40;0.20;;;17.20;95.00;;;;;;5083910;28;20516;-92
2022/05/04 09:20:53;;;;;;;0.30;0.20;;;17.40;96.60;;;;;;5080950;28;20487;-91
2022/05/04 09:23:22;;;;;;;0.30;0.20;;;17.40;95.90;;;;;;5064822;28;20467;-91
2022/05/04 09:25:51;;;;;;;0.30;0.20;;;17.20;95.10;;;;;;5080174;28;20976;-91
2022/05/04 09:28:20;;;;;;;0.40;0.20;;;17.00;95.20;;;;;;5084833;28;20545;-90
2022/05/04 09:30:49;;;;;;;0.40;0.20;;;16.90;96.60;;;;;;5086332;28;20554;-91
2022/05/04 09:33:21;;;;;;;0.40;0.20;;;17.20;96.80;;;;;;5071235;28;20852;-91
2022/05/04 09:35:48;;;;;;;0.40;0.20;;;17.20;95.80;;;;;;5066568;28;20463;-91
2022/05/04 09:46:37;;;;;;;0.40;0.20;;;17.70;95.10;;;;;;5065821;28;20442;-90
2022/05/04 09:49:14;;;;;;;0.40;0.20;;;18.00;94.50;;;;;;5074183;28;20464;-91
2022/05/04 09:51:43;;;;;;;0.40;0.40;;;17.70;95.80;;;;;;5077170;28;20447;-91
2022/05/04 09:54:18;;;;;;;0.40;0.20;;;17.40;95.50;;;;;;5076459;28;20460;-89
2022/05/04 09:56:50;;;;;;;0.40;0.20;;;17.60;95.90;;;;;;5065936;28;20972;-90
2022/05/04 09:59:20;;;;;;;0.40;0.20;;;18.20;95.30;;;;;;5064218;28;20458;-91
2022/05/04 10:01:49;;;;;;;0.40;0.20;;;18.40;93.20;;;;;;5075096;28;20521;-90
2022/05/04 10:04:16;;;;;;;0.40;0.20;;;18.30;92.50;;;;;;5084895;28;20587;-91
2022/05/04 10:06:44;;;;;;;0.40;0.20;;;18.40;93.50;;;;;;5073172;28;20513;-91
2022/05/04 10:09:12;;;;;;;0.40;0.20;;;18.30;93.10;;;;;;5065122;28;20451;-90
2022/05/04 10:11:39;;;;;;;0.40;0.20;;;18.20;93.20;;;;;;5071055;28;21033;-90
2022/05/04 10:14:10;;;;;;;0.40;0.20;;;18.20;93.90;;;;;;5066424;28;20455;-90
2022/05/04 10:16:44;;;;;;;0.40;0.30;;;18.00;93.50;;;;;;5076275;28;20459;-91
2022/05/04 10:19:18;;;;;;;0.40;0.20;;;18.20;96.20;;;;;;5075136;28;20522;-90
2022/05/04 10:21:49;;;;;;;0.40;0.20;;;18.50;94.80;;;;;;5076376;28;20821;-91
2022/05/04 10:24:18;;;;;;;0.40;0.20;;;18.70;94.20;;;;;;5084052;28;20934;-91
2022/05/04 10:26:46;;;;;;;0.40;0.20;;;18.50;92.60;;;;;;5065248;28;20451;-94
2022/05/04 10:32:32;;;;;;;0.40;0.20;;;18.30;93.20;;;;;;5081864;28;20433;-94
2022/05/04 10:35:23;;;;;;;0.40;0.20;;;18.60;91.90;;;;;;5067900;28;20445;-93
2022/05/04 10:38:11;;;;;;;0.40;0.20;;;18.80;92.50;;;;;;5067135;28;20518;-93
2022/05/04 10:40:43;;;;;;;0.40;0.20;;;18.50;92.40;;;;;;5084909;28;20464;-93
2022/05/04 10:43:11;;;;;;;0.40;0.20;;;18.90;92.60;;;;;;5108234;28;20463;-93
2022/05/04 10:45:41;;;;;;;0.40;0.20;;;19.00;93.30;;;;;;5094175;28;20482;-93
2022/05/04 10:48:22;;;;;;;0.40;0.20;;;18.90;90.80;;;;;;5093497;28;20463;-92
2022/05/04 10:50:50;;;;;;;0.40;0.20;;;19.30;91.90;;;;;;5073453;28;20478;-95
2022/05/04 10:53:23;;;;;;;0.40;0.20;;;19.40;91.30;;;;;;5072196;28;20543;-93
2022/05/04 10:55:57;;;;;;;0.40;0.20;;;19.30;90.30;;;;;;5071239;28;20468;-94
2022/05/04 10:58:35;;;;;;;0.40;0.20;;;18.80;89.20;;;;;;5074182;28;20459;-93
2022/05/04 11:01:04;;;;;;;0.40;0.20;;;19.00;90.40;;;;;;5077336;28;21184;-93
2022/05/04 11:03:35;;;;;;;0.40;0.20;;;18.90;92.10;;;;;;5072935;28;20470;-93
2022/05/04 11:06:09;;;;;;;0.40;0.20;;;19.10;92.20;;;;;;5076689;28;20488;-93
2022/05/04 11:08:37;;;;;;;0.40;0.20;;;19.30;86.80;;;;;;5072741;28;20492;-93
2022/05/04 11:11:04;;;;;;;0.40;0.20;;;19.40;85.80;;;;;;5078905;28;20461;-93
2022/05/04 11:13:33;;;;;;;0.40;0.20;;;19.70;86.10;;;;;;5087762;28;20468;-94
2022/05/04 11:16:01;;;;;;;0.40;0.20;;;19.60;85.80;;;;;;5074741;28;20925;-95
2022/05/04 11:18:30;;;;;;;0.40;0.20;;;19.90;84.20;;;;;;5079246;28;20441;-94
2022/05/04 11:21:00;;;;;;;0.40;0.20;;;20.30;90.40;;;;;;5073422;28;20485;-94
2022/05/04 11:23:27;;;;;;;0.40;0.20;;;20.30;83.10;;;;;;5083278;28;20889;-93
2022/05/04 11:25:54;;;;;;;0.40;0.20;;;19.90;86.40;;;;;;5083309;28;20488;-94
2022/05/04 11:28:24;;;;;;;0.40;0.20;;;19.80;85.70;;;;;;5094096;28;20453;-94
2022/05/04 11:30:53;;;;;;;0.40;0.20;;;19.70;82.10;;;;;;5094158;28;20435;-94
2022/05/04 11:33:20;;;;;;;0.40;0.20;;;19.70;82.50;;;;;;5089890;28;20467;-94
2022/05/04 11:35:54;;;;;;;0.40;0.20;;;19.90;81.30;;;;;;5091452;28;20430;-94
2022/05/04 11:38:23;;;;;;;0.40;0.20;;;20.00;83.90;;;;;;5088858;28;20461;-94
2022/05/04 11:40:52;;;;;;;0.40;0.20;;;19.90;84.50;;;;;;5089183;28;20462;-94
2022/05/04 11:43:24;;;;;;;0.40;0.20;;;20.00;83.20;;;;;;5091355;28;20848;-93
2022/05/04 11:45:52;;;;;;;0.40;0.20;;;20.10;82.40;;;;;;5088589;28;20490;-94
2022/05/04 11:48:19;;;;;;;0.40;0.20;;;20.20;82.40;;;;;;5092946;28;20462;-93
2022/05/04 11:50:46;;;;;;;0.40;0.20;;;20.20;81.80;;;;;;5070541;28;20511;-94
2022/05/04 11:53:13;;;;;;;0.40;0.20;;;20.10;84.50;;;;;;5070246;28;20521;-94
2022/05/04 11:55:42;;;;;;;0.40;0.20;;;19.90;81.40;;;;;;5072086;28;20523;-92
2022/05/04 11:58:10;;;;;;;0.40;0.20;;;19.90;82.50;;;;;;5081837;28;20458;-93
2022/05/04 12:00:38;;;;;;;0.40;0.20;;;20.20;82.20;;;;;;5075881;28;20560;-93
2022/05/04 12:03:05;;;;;;;0.40;0.20;;;20.40;83.60;;;;;;5072667;28;20462;-95
2022/05/04 12:05:33;;;;;;;0.40;0.20;;;20.50;82.60;;;;;;5088218;28;20536;-94
2022/05/04 12:08:01;;;;;;;0.40;0.20;;;20.50;78.70;;;;;;5074611;28;20554;-95
2022/05/04 12:10:28;;;;;;;0.40;0.20;;;20.70;83.60;;;;;;5087935;28;21059;-94
2022/05/04 12:12:58;;;;;;;0.40;0.20;;;20.90;85.40;;;;;;5087809;28;20523;-94
2022/05/04 12:15:28;;;;;;;0.40;0.20;;;20.90;80.00;;;;;;5087342;28;20586;-94
2022/05/04 12:17:59;;;;;;;0.40;0.20;;;20.80;77.80;;;;;;5088701;28;20990;-94
2022/05/04 12:20:27;;;;;;;0.40;0.20;;;20.60;77.40;;;;;;5070057;28;20837;-94
2022/05/04 12:22:55;;;;;;;0.40;0.20;;;20.30;80.30;;;;;;5089135;28;20965;-93
2022/05/04 12:25:24;;;;;;;0.40;0.20;;;20.20;78.70;;;;;;5080847;28;20544;-94
2022/05/04 12:27:51;;;;;;;0.40;0.20;;;20.40;77.90;;;;;;5076319;28;20871;-94
2022/05/04 12:33:11;;;;;;;0.40;0.20;;;20.50;77.70;;;;;;5088734;28;21000;-94
2022/05/04 12:35:42;;;;;;;0.40;0.20;;;20.80;82.40;;;;;;5073544;28;20463;-94
2022/05/04 12:38:09;;;;;;;0.40;0.20;;;20.90;79.20;;;;;;5075748;28;20456;-94
2022/05/04 12:40:36;;;;;;;0.40;0.20;;;20.80;77.30;;;;;;5070964;28;21192;-94
2022/05/04 12:43:05;;;;;;;0.40;0.20;;;21.00;83.00;;;;;;5074110;28;20531;-92
2022/05/04 12:45:35;;;;;;;0.40;0.20;;;21.20;83.10;;;;;;5067380;28;20497;-94
2022/05/04 12:48:05;;;;;;;0.40;0.20;;;21.40;77.70;;;;;;5071837;28;20459;-91
2022/05/04 12:50:33;;;;;;;0.40;0.20;;;21.20;75.00;;;;;;5065965;28;20463;-91
2022/05/04 12:53:00;;;;;;;0.40;0.20;;;20.90;77.30;;;;;;5069554;28;20464;-92
2022/05/04 12:58:08;;;;;;;0.40;0.20;;;21.10;75.30;;;;;;5076432;28;20863;-92
2022/05/04 13:00:37;;;;;;;0.40;0.20;;;21.30;74.80;;;;;;5079094;28;21256;-92
2022/05/04 13:03:07;;;;;;;0.40;0.20;;;20.70;72.90;;;;;;5072147;28;20940;-92
2022/05/04 13:05:34;;;;;;;0.40;0.30;;;20.90;74.70;;;;;;5080619;28;20500;-91
2022/05/04 13:08:01;;;;;;;0.40;0.20;;;21.20;79.70;;;;;;5076656;28;20950;-92
2022/05/04 13:10:28;;;;;;;0.40;0.20;;;21.30;75.20;;;;;;5065604;28;20498;-91
2022/05/04 13:12:55;;;;;;;0.40;0.30;;;21.30;77.20;;;;;;5069129;28;20463;-91
2022/05/04 13:15:22;;;;;;;0.40;0.20;;;21.40;70.30;;;;;;5065281;28;20521;-91
2022/05/04 13:17:50;;;;;;;0.40;0.20;;;21.50;73.70;;;;;;5068125;28;20459;-91
2022/05/04 13:20:17;;;;;;;0.40;0.20;;;21.40;69.90;;;;;;5066253;28;20513;-91
2022/05/04 13:22:44;;;;;;;0.40;0.20;;;21.50;73.00;;;;;;5075516;28;21042;-92
2022/05/04 13:25:11;;;;;;;0.40;0.20;;;21.40;77.60;;;;;;5069188;28;20513;-91
2022/05/04 13:27:38;;;;;;;0.40;0.20;;;21.60;70.30;;;;;;5064709;28;20463;-91
2022/05/04 13:30:07;;;;;;;0.40;0.20;;;21.60;71.30;;;;;;5081047;28;20847;-92
2022/05/04 13:32:34;;;;;;;0.40;0.20;;;21.80;70.80;;;;;;5086379;28;20447;-91
2022/05/04 13:35:02;;;;;;;0.40;0.20;;;21.90;74.00;;;;;;5070739;28;20930;-90
2022/05/04 13:37:29;;;;;;;0.40;0.20;;;21.60;70.30;;;;;;5065575;28;20452;-91